Accueil
METAR-TAF:

METAR-TAF

Aéroports :

Pittsburg, Kansas, États-Unis

latitude: 37-26-58N, longitude: 094-43-52W, altitude: 290 m

Observation

Le bulletin a été fait il y a 5 minutes, à 17:15 UTC
Vent 5 kt de sud/sud-est
Température 24°C
Humidité 78%
Pression 1018 hPa
Visibilité: 16.1 km
Ciel clair

METAR: KPTS 201715Z AUTO 16005KT 10SM CLR 24/20 A3006 RMK AO2 T02420200

Heure: 12:20 (17:20 UTC)


TAF: absent

Observations et prévisions météorologiques de plus de 4000 aéroports (messages METAR et TAF).

Les stations disponibles sont représentées par des disques jaunes et rouges sur la carte.

Passer la souris dessus pour voir le nom de la station.

Cliquer dessus pour voir les observations et prévisions météorologiques.

Pour changer de carte: cliquez sur les boutons verts avec une croix noire pour zoomer, sur le bouton vert avec un tiret pour effectuer un zoom arrière, ou sur les flèches vertes pour les cartes adjacentes.


METAR-TAF: